Time;durP1;ratioP1;P1;durP2;ratioP2;P2;SDS_P1;SDS_P2;PMS_P1;PMS_P2;Temp;Humidity;BMP_temperature;BMP_pressure;BME280_temperature;BME280_humidity;BME280_pressure;Samples;Min_cycle;Max_cycle;Signal;HPM_P1;HPM_P2
2021/08/22 00:01:21;;;;;;;3.15;2.03;;;;;;;;;;5074252;28;20115;-78
2021/08/22 00:03:47;;;;;;;2.67;2.22;;;;;;;;;;5075755;28;20041;-79
2021/08/22 00:06:12;;;;;;;5.22;2.65;;;;;;;;;;5058873;28;20039;-78
2021/08/22 00:08:44;;;;;;;3.90;2.70;;;;;;;;;;5058434;28;20033;-78
2021/08/22 00:11:09;;;;;;;3.90;2.70;;;;;;;;;;5075043;28;20040;-78
2021/08/22 00:13:36;;;;;;;4.07;2.85;;;;;;;;;;5076219;28;20024;-78
2021/08/22 00:16:02;;;;;;;3.88;2.40;;;;;;;;;;5076728;28;20050;-78
2021/08/22 00:18:28;;;;;;;2.22;2.00;;;;;;;;;;5109263;28;20096;-78
2021/08/22 00:20:53;;;;;;;3.90;2.13;;;;;;;;;;5099468;28;20461;-79
2021/08/22 00:23:19;;;;;;;6.70;2.40;;;;;;;;;;5117369;28;20035;-78
2021/08/22 00:25:44;;;;;;;4.47;2.53;;;;;;;;;;5116735;28;20032;-78
2021/08/22 00:28:10;;;;;;;3.75;2.55;;;;;;;;;;5085497;28;20059;-78
2021/08/22 00:30:36;;;;;;;10.55;2.47;;;;;;;;;;5074560;28;20044;-78
2021/08/22 00:33:01;;;;;;;6.00;2.40;;;;;;;;;;5075129;28;20037;-78
2021/08/22 00:35:27;;;;;;;13.00;2.72;;;;;;;;;;5075717;28;20139;-78
2021/08/22 00:37:53;;;;;;;4.15;2.38;;;;;;;;;;5075303;28;20032;-78
2021/08/22 00:40:19;;;;;;;5.95;2.55;;;;;;;;;;5058274;28;20032;-77
2021/08/22 00:42:46;;;;;;;4.07;2.08;;;;;;;;;;5075614;28;20086;-78
2021/08/22 00:45:12;;;;;;;4.90;2.67;;;;;;;;;;5074504;28;20043;-78
2021/08/22 00:47:39;;;;;;;6.57;2.45;;;;;;;;;;5074547;28;20082;-78
2021/08/22 00:50:05;;;;;;;8.77;2.85;;;;;;;;;;5074363;28;20032;-78
2021/08/22 00:52:34;;;;;;;4.70;3.08;;;;;;;;;;5074956;28;20029;-78
2021/08/22 00:55:04;;;;;;;6.22;2.50;;;;;;;;;;5057646;28;20032;-78
2021/08/22 00:57:30;;;;;;;3.92;2.20;;;;;;;;;;5074864;28;20406;-78
2021/08/22 01:00:00;;;;;;;5.13;2.92;;;;;;;;;;5074409;28;20044;-78
2021/08/22 01:02:30;;;;;;;5.50;2.63;;;;;;;;;;5057441;28;20456;-78
2021/08/22 01:05:09;;;;;;;3.63;2.47;;;;;;;;;;5074053;28;20036;-78
2021/08/22 01:07:42;;;;;;;7.25;2.50;;;;;;;;;;5076343;28;20482;-78
2021/08/22 01:10:10;;;;;;;5.45;2.80;;;;;;;;;;5078313;28;20040;-78
2021/08/22 01:12:45;;;;;;;7.93;2.75;;;;;;;;;;5079596;28;20401;-78
2021/08/22 01:15:13;;;;;;;5.07;2.47;;;;;;;;;;5078867;28;20131;-78
2021/08/22 01:17:50;;;;;;;4.70;2.75;;;;;;;;;;5061983;28;20094;-78
2021/08/22 01:20:49;;;;;;;4.93;2.10;;;;;;;;;;5061113;28;20032;-78
2021/08/22 01:23:16;;;;;;;5.30;2.50;;;;;;;;;;5077662;28;20478;-78
2021/08/22 01:25:43;;;;;;;4.47;2.45;;;;;;;;;;5087562;28;20097;-78
2021/08/22 01:28:09;;;;;;;6.97;2.70;;;;;;;;;;5098129;28;20078;-78
2021/08/22 01:30:41;;;;;;;5.38;2.28;;;;;;;;;;5098047;28;20028;-78
2021/08/22 01:33:10;;;;;;;4.88;2.60;;;;;;;;;;5080795;28;20024;-77
2021/08/22 01:35:36;;;;;;;9.00;2.55;;;;;;;;;;5097922;28;20482;-77
2021/08/22 01:38:02;;;;;;;5.53;2.47;;;;;;;;;;5081474;28;20103;-78
2021/08/22 01:40:28;;;;;;;5.97;2.40;;;;;;;;;;5098048;28;20028;-78
2021/08/22 01:42:54;;;;;;;4.63;3.08;;;;;;;;;;5098405;28;20616;-78
2021/08/22 01:45:20;;;;;;;8.98;2.67;;;;;;;;;;5080729;28;20473;-78
2021/08/22 01:47:48;;;;;;;6.95;2.70;;;;;;;;;;5080478;28;20064;-78
2021/08/22 01:50:17;;;;;;;5.25;2.75;;;;;;;;;;5081088;28;20028;-78
2021/08/22 01:52:43;;;;;;;4.45;2.30;;;;;;;;;;5077640;28;20497;-77
2021/08/22 01:55:09;;;;;;;4.43;2.40;;;;;;;;;;5077435;28;20043;-78
2021/08/22 01:57:39;;;;;;;6.32;2.80;;;;;;;;;;5076699;28;20072;-78
2021/08/22 02:00:06;;;;;;;4.47;2.55;;;;;;;;;;5060025;28;20033;-78
2021/08/22 02:03:13;;;;;;;5.68;2.47;;;;;;;;;;5078550;28;20036;-78
2021/08/22 02:05:39;;;;;;;3.00;2.70;;;;;;;;;;5055888;28;20540;-78
2021/08/22 02:08:17;;;;;;;5.72;2.50;;;;;;;;;;5078418;28;20033;-78
2021/08/22 02:10:49;;;;;;;10.27;3.10;;;;;;;;;;5077098;28;20036;-78
2021/08/22 02:13:16;;;;;;;6.05;2.80;;;;;;;;;;5076544;28;20439;-77
2021/08/22 02:15:44;;;;;;;4.47;2.67;;;;;;;;;;5078469;28;20093;-78
2021/08/22 02:18:16;;;;;;;5.45;2.85;;;;;;;;;;5075921;28;20058;-78
2021/08/22 02:20:45;;;;;;;8.20;3.33;;;;;;;;;;5077292;28;20397;-78
2021/08/22 02:23:11;;;;;;;6.20;3.15;;;;;;;;;;5091661;28;20039;-78
2021/08/22 02:25:37;;;;;;;5.82;2.88;;;;;;;;;;5097226;28;20040;-78
2021/08/22 02:28:04;;;;;;;6.20;2.92;;;;;;;;;;5096818;28;20469;-78
2021/08/22 02:30:37;;;;;;;4.55;2.60;;;;;;;;;;5096777;28;20128;-78
2021/08/22 02:33:03;;;;;;;6.13;2.95;;;;;;;;;;5096827;28;20032;-77
2021/08/22 02:35:29;;;;;;;7.03;2.70;;;;;;;;;;5079441;28;20063;-78
2021/08/22 02:37:54;;;;;;;4.05;2.85;;;;;;;;;;5079359;28;20478;-78
2021/08/22 02:40:20;;;;;;;6.18;2.70;;;;;;;;;;5079687;28;20385;-78
2021/08/22 02:42:45;;;;;;;4.40;3.00;;;;;;;;;;5097599;28;20028;-78
2021/08/22 02:45:11;;;;;;;4.50;3.22;;;;;;;;;;5096628;28;20466;-78
2021/08/22 02:47:36;;;;;;;5.97;2.83;;;;;;;;;;5096156;28;20036;-78
2021/08/22 02:50:02;;;;;;;4.22;2.50;;;;;;;;;;5096337;28;20473;-78
2021/08/22 02:52:28;;;;;;;7.75;3.53;;;;;;;;;;5096724;28;20032;-78
2021/08/22 02:54:53;;;;;;;4.57;3.20;;;;;;;;;;5082305;28;20045;-78
2021/08/22 02:57:19;;;;;;;4.85;3.47;;;;;;;;;;5076795;28;20047;-78
2021/08/22 02:59:45;;;;;;;6.43;3.45;;;;;;;;;;5075998;28;20036;-78
2021/08/22 03:02:11;;;;;;;4.75;3.47;;;;;;;;;;5059822;28;20036;-78
2021/08/22 03:04:37;;;;;;;7.80;3.60;;;;;;;;;;5077023;28;20044;-78
2021/08/22 03:07:04;;;;;;;4.97;3.90;;;;;;;;;;5058739;28;20036;-77
2021/08/22 03:09:30;;;;;;;8.75;3.55;;;;;;;;;;5057522;28;20215;-77
2021/08/22 03:11:55;;;;;;;4.68;3.90;;;;;;;;;;5074106;28;20557;-77
2021/08/22 03:14:21;;;;;;;6.95;3.70;;;;;;;;;;5075047;28;20041;-77
2021/08/22 03:16:46;;;;;;;6.15;3.85;;;;;;;;;;5057048;28;20173;-77
2021/08/22 03:19:11;;;;;;;4.53;3.40;;;;;;;;;;5074944;28;20028;-77
2021/08/22 03:21:37;;;;;;;10.00;4.25;;;;;;;;;;5056947;28;20494;-76
2021/08/22 03:24:03;;;;;;;7.38;3.92;;;;;;;;;;5079860;28;20040;-77
2021/08/22 03:26:28;;;;;;;13.98;3.70;;;;;;;;;;5093812;28;20036;-77
2021/08/22 03:28:54;;;;;;;5.45;3.17;;;;;;;;;;5076663;28;20031;-77
2021/08/22 03:31:20;;;;;;;7.72;3.03;;;;;;;;;;5093175;28;20020;-77
2021/08/22 03:33:45;;;;;;;10.63;3.47;;;;;;;;;;5076303;28;20032;-77
2021/08/22 03:36:11;;;;;;;6.85;3.00;;;;;;;;;;5093897;28;20162;-77
2021/08/22 03:38:37;;;;;;;7.68;3.50;;;;;;;;;;5076568;28;20401;-77
2021/08/22 03:41:04;;;;;;;5.30;3.58;;;;;;;;;;5076897;28;20028;-77
2021/08/22 03:43:29;;;;;;;7.03;3.10;;;;;;;;;;5076713;28;20496;-77
2021/08/22 03:45:55;;;;;;;6.57;3.15;;;;;;;;;;5093695;28;20040;-78
2021/08/22 03:48:20;;;;;;;5.50;3.55;;;;;;;;;;5076861;28;20075;-77
2021/08/22 03:50:46;;;;;;;8.18;3.72;;;;;;;;;;5095017;28;20367;-78
2021/08/22 03:53:11;;;;;;;6.15;3.90;;;;;;;;;;5095323;28;20032;-77
2021/08/22 03:55:37;;;;;;;12.48;4.63;;;;;;;;;;5082186;28;20033;-78
2021/08/22 03:58:02;;;;;;;8.32;3.80;;;;;;;;;;5056589;28;20078;-77
2021/08/22 04:00:28;;;;;;;6.03;3.55;;;;;;;;;;5074986;28;20444;-77
2021/08/22 04:02:53;;;;;;;11.55;4.00;;;;;;;;;;5076124;28;20135;-77
2021/08/22 04:05:38;;;;;;;7.10;3.55;;;;;;;;;;5079036;28;20043;-77
2021/08/22 04:08:04;;;;;;;6.63;3.65;;;;;;;;;;5093402;28;20454;-77
2021/08/22 04:10:30;;;;;;;6.53;3.60;;;;;;;;;;5076798;28;20043;-78
2021/08/22 04:12:56;;;;;;;7.63;3.60;;;;;;;;;;5094089;28;20036;-77
2021/08/22 04:15:23;;;;;;;5.00;3.50;;;;;;;;;;5094315;28;20036;-78
2021/08/22 04:17:49;;;;;;;5.63;3.63;;;;;;;;;;5094065;28;20036;-77
2021/08/22 04:20:14;;;;;;;7.05;3.72;;;;;;;;;;5093775;28;20043;-78
2021/08/22 04:22:40;;;;;;;6.70;3.60;;;;;;;;;;5077123;28;20043;-78
2021/08/22 04:25:08;;;;;;;7.28;3.88;;;;;;;;;;5088861;28;20093;-78
2021/08/22 04:27:34;;;;;;;4.80;3.67;;;;;;;;;;5074356;28;20037;-78
2021/08/22 04:30:00;;;;;;;8.15;4.20;;;;;;;;;;5057384;28;20028;-78
2021/08/22 04:32:26;;;;;;;8.82;3.95;;;;;;;;;;5074247;28;20043;-78
2021/08/22 04:34:52;;;;;;;10.07;4.18;;;;;;;;;;5057061;28;20060;-78
2021/08/22 04:37:18;;;;;;;7.38;3.85;;;;;;;;;;5074152;28;20033;-78
2021/08/22 04:39:43;;;;;;;7.53;4.03;;;;;;;;;;5057037;28;20481;-78
2021/08/22 04:42:09;;;;;;;6.10;3.80;;;;;;;;;;5073116;28;20086;-78
2021/08/22 04:44:34;;;;;;;6.07;3.80;;;;;;;;;;5073880;28;20040;-78
2021/08/22 04:46:59;;;;;;;5.22;3.40;;;;;;;;;;5073857;28;20070;-78
2021/08/22 04:49:25;;;;;;;7.75;3.60;;;;;;;;;;5074128;28;20045;-78
2021/08/22 04:51:50;;;;;;;5.70;3.88;;;;;;;;;;5073990;28;20032;-78
2021/08/22 04:54:15;;;;;;;10.43;3.50;;;;;;;;;;5073665;28;20064;-78
2021/08/22 04:56:41;;;;;;;5.47;3.90;;;;;;;;;;5072838;28;20048;-78
2021/08/22 04:59:08;;;;;;;5.68;3.75;;;;;;;;;;5056920;28;20029;-78
2021/08/22 05:01:33;;;;;;;6.18;3.95;;;;;;;;;;5056986;28;20032;-78
2021/08/22 05:03:59;;;;;;;7.18;3.92;;;;;;;;;;5074900;28;20090;-78
2021/08/22 05:06:24;;;;;;;6.25;3.25;;;;;;;;;;5074065;28;20036;-78
2021/08/22 05:08:50;;;;;;;4.97;3.58;;;;;;;;;;5073790;28;20032;-78
2021/08/22 05:11:15;;;;;;;5.57;3.90;;;;;;;;;;5073334;28;20033;-78
2021/08/22 05:13:41;;;;;;;10.55;4.32;;;;;;;;;;5056677;28;20127;-78
2021/08/22 05:16:06;;;;;;;5.40;3.92;;;;;;;;;;5073897;28;20040;-78
2021/08/22 05:18:32;;;;;;;6.53;3.20;;;;;;;;;;5056340;28;20044;-78
2021/08/22 05:20:58;;;;;;;6.20;4.05;;;;;;;;;;5057266;28;20086;-78
2021/08/22 05:23:23;;;;;;;6.18;3.63;;;;;;;;;;5056938;28;20043;-78
2021/08/22 05:25:48;;;;;;;5.93;3.67;;;;;;;;;;5073331;28;20032;-78
2021/08/22 05:28:14;;;;;;;7.18;3.42;;;;;;;;;;5073570;28;20036;-78
2021/08/22 05:30:39;;;;;;;11.85;3.95;;;;;;;;;;5073372;28;20129;-78
2021/08/22 05:33:05;;;;;;;10.27;3.83;;;;;;;;;;5073094;28;20105;-77
2021/08/22 05:35:31;;;;;;;8.27;4.22;;;;;;;;;;5056320;28;20429;-77
2021/08/22 05:37:57;;;;;;;5.55;3.90;;;;;;;;;;5073390;28;20091;-77
2021/08/22 05:40:23;;;;;;;12.38;4.28;;;;;;;;;;5079426;28;20072;-77
2021/08/22 05:42:48;;;;;;;12.13;5.70;;;;;;;;;;5092737;28;20036;-77
2021/08/22 05:45:14;;;;;;;8.77;3.70;;;;;;;;;;5093125;28;20028;-77
2021/08/22 05:47:41;;;;;;;5.90;4.05;;;;;;;;;;5076568;28;20547;-77
2021/08/22 05:50:07;;;;;;;4.63;3.47;;;;;;;;;;5093991;28;20031;-77
2021/08/22 05:52:34;;;;;;;7.32;3.50;;;;;;;;;;5076552;28;20032;-77
2021/08/22 05:55:06;;;;;;;9.75;4.43;;;;;;;;;;5093311;28;20047;-77
2021/08/22 05:57:31;;;;;;;8.88;3.95;;;;;;;;;;5076593;28;20093;-77
2021/08/22 05:59:57;;;;;;;5.75;3.80;;;;;;;;;;5077926;28;20062;-77
2021/08/22 06:02:22;;;;;;;8.00;4.18;;;;;;;;;;5076283;28;20036;-77
2021/08/22 06:04:48;;;;;;;9.75;4.45;;;;;;;;;;5060233;28;20028;-78
2021/08/22 06:07:20;;;;;;;6.28;3.95;;;;;;;;;;5077569;28;20036;-81
2021/08/22 06:09:50;;;;;;;12.57;3.72;;;;;;;;;;5063925;28;20063;-81
2021/08/22 06:12:18;;;;;;;5.18;4.20;;;;;;;;;;5064347;28;20032;-81
2021/08/22 06:14:44;;;;;;;5.70;3.90;;;;;;;;;;5079927;28;20032;-81
2021/08/22 06:17:10;;;;;;;5.25;4.30;;;;;;;;;;5079846;28;20039;-82
2021/08/22 06:19:35;;;;;;;7.90;4.38;;;;;;;;;;5076778;28;20077;-82
2021/08/22 06:22:02;;;;;;;6.82;5.07;;;;;;;;;;5060428;28;20127;-81
2021/08/22 06:24:28;;;;;;;9.60;5.28;;;;;;;;;;5077827;28;20166;-82
2021/08/22 06:26:53;;;;;;;7.60;5.07;;;;;;;;;;5094674;28;20047;-82
2021/08/22 06:29:19;;;;;;;5.70;4.55;;;;;;;;;;5098810;28;20036;-83
2021/08/22 06:31:44;;;;;;;7.57;4.60;;;;;;;;;;5097690;28;20393;-81
2021/08/22 06:34:10;;;;;;;10.85;4.97;;;;;;;;;;5097319;28;20056;-81
2021/08/22 06:36:39;;;;;;;12.63;5.13;;;;;;;;;;5079432;28;20047;-81
2021/08/22 06:39:05;;;;;;;6.65;4.85;;;;;;;;;;5096098;28;20032;-82
2021/08/22 06:41:31;;;;;;;7.65;4.32;;;;;;;;;;5097355;28;20047;-82
2021/08/22 06:43:58;;;;;;;5.93;4.13;;;;;;;;;;5080538;28;20118;-81
2021/08/22 06:46:23;;;;;;;7.47;4.63;;;;;;;;;;5098435;28;20059;-83
2021/08/22 06:48:49;;;;;;;8.32;4.43;;;;;;;;;;5097532;28;20036;-81
2021/08/22 06:51:15;;;;;;;9.68;4.18;;;;;;;;;;5080486;28;20058;-81
2021/08/22 06:53:40;;;;;;;12.55;5.10;;;;;;;;;;5080921;28;20040;-81
2021/08/22 06:56:06;;;;;;;5.88;4.25;;;;;;;;;;5076220;28;20033;-82
2021/08/22 06:58:31;;;;;;;8.95;4.07;;;;;;;;;;5060381;28;20048;-80
2021/08/22 07:00:57;;;;;;;8.02;4.38;;;;;;;;;;5076569;28;20044;-82
2021/08/22 07:03:22;;;;;;;5.10;4.05;;;;;;;;;;5077031;28;20399;-82
2021/08/22 07:05:47;;;;;;;11.80;5.10;;;;;;;;;;5075667;28;20044;-82
2021/08/22 07:08:13;;;;;;;9.00;4.10;;;;;;;;;;5076259;28;20039;-82
2021/08/22 07:10:39;;;;;;;7.43;4.53;;;;;;;;;;5059952;28;20037;-82
2021/08/22 07:13:05;;;;;;;7.57;5.07;;;;;;;;;;5076409;28;20041;-82
2021/08/22 07:15:30;;;;;;;9.23;5.25;;;;;;;;;;5059718;28;20041;-82
2021/08/22 07:17:56;;;;;;;8.82;4.85;;;;;;;;;;5076862;28;20099;-82
2021/08/22 07:20:23;;;;;;;7.80;4.85;;;;;;;;;;5060489;28;20064;-82
2021/08/22 07:22:48;;;;;;;6.00;4.32;;;;;;;;;;5061248;28;20031;-81
2021/08/22 07:25:13;;;;;;;6.22;5.30;;;;;;;;;;5093592;28;20032;-81
2021/08/22 07:27:39;;;;;;;7.70;5.43;;;;;;;;;;5102438;28;20042;-81
2021/08/22 07:30:05;;;;;;;7.35;5.43;;;;;;;;;;5119701;28;20027;-79
2021/08/22 07:32:30;;;;;;;11.18;5.55;;;;;;;;;;5119408;28;20027;-80
2021/08/22 07:34:55;;;;;;;9.65;5.80;;;;;;;;;;5101671;28;20092;-83
2021/08/22 07:37:21;;;;;;;10.95;6.03;;;;;;;;;;5090905;28;20040;-79
2021/08/22 07:39:46;;;;;;;9.68;4.93;;;;;;;;;;5086537;28;20057;-78
2021/08/22 07:42:11;;;;;;;6.10;4.80;;;;;;;;;;5088668;28;20028;-79
2021/08/22 07:44:37;;;;;;;8.85;5.57;;;;;;;;;;5082767;28;20032;-78
2021/08/22 07:47:03;;;;;;;6.63;5.05;;;;;;;;;;5085495;28;20019;-79
2021/08/22 07:49:28;;;;;;;8.57;5.45;;;;;;;;;;5086772;28;20035;-80
2021/08/22 07:51:54;;;;;;;6.55;4.63;;;;;;;;;;5085576;28;20062;-79
2021/08/22 07:54:19;;;;;;;8.70;5.05;;;;;;;;;;5079541;28;20028;-78
2021/08/22 07:56:45;;;;;;;7.18;4.50;;;;;;;;;;5095826;28;20112;-80
2021/08/22 07:59:11;;;;;;;5.95;4.65;;;;;;;;;;5101358;28;20415;-77
2021/08/22 08:01:36;;;;;;;7.70;4.72;;;;;;;;;;5102003;28;20087;-83
2021/08/22 08:04:02;;;;;;;9.77;4.65;;;;;;;;;;5104288;28;20572;-79
2021/08/22 08:06:27;;;;;;;8.30;4.95;;;;;;;;;;5071265;28;20562;-80
2021/08/22 08:08:53;;;;;;;5.35;4.30;;;;;;;;;;5064186;28;20032;-83
2021/08/22 08:11:18;;;;;;;6.28;4.45;;;;;;;;;;5063925;28;20068;-82
2021/08/22 08:13:44;;;;;;;5.85;4.68;;;;;;;;;;5064692;28;20037;-81
2021/08/22 08:16:09;;;;;;;5.97;4.47;;;;;;;;;;5062975;28;20021;-81
2021/08/22 08:18:36;;;;;;;7.82;4.90;;;;;;;;;;5063823;28;20029;-79
2021/08/22 08:21:03;;;;;;;6.80;4.72;;;;;;;;;;5062392;28;20063;-83
2021/08/22 08:23:29;;;;;;;8.52;4.80;;;;;;;;;;5079875;28;20066;-81
2021/08/22 08:25:55;;;;;;;9.60;5.07;;;;;;;;;;5078376;28;20064;-81
2021/08/22 08:28:20;;;;;;;9.18;4.82;;;;;;;;;;5076591;28;20479;-79
2021/08/22 08:30:46;;;;;;;6.20;4.95;;;;;;;;;;5061300;28;20043;-77
2021/08/22 08:33:11;;;;;;;5.85;4.65;;;;;;;;;;5080620;28;20032;-78
2021/08/22 08:35:38;;;;;;;7.68;4.53;;;;;;;;;;5076380;28;20109;-79
2021/08/22 08:38:03;;;;;;;8.38;4.63;;;;;;;;;;5080229;28;20070;-79
2021/08/22 08:40:29;;;;;;;5.60;4.90;;;;;;;;;;5093640;28;20032;-81
2021/08/22 08:43:05;;;;;;;6.38;4.82;;;;;;;;;;5079820;28;20043;-81
2021/08/22 08:46:07;;;;;;;8.23;5.05;;;;;;;;;;5078922;28;20413;-80
2021/08/22 08:48:46;;;;;;;7.13;4.75;;;;;;;;;;5061580;28;20505;-83
2021/08/22 08:51:17;;;;;;;9.02;5.30;;;;;;;;;;5086166;28;20051;-82
2021/08/22 08:53:48;;;;;;;6.00;5.07;;;;;;;;;;5065321;28;20029;-80
2021/08/22 08:56:14;;;;;;;9.52;5.55;;;;;;;;;;5067243;28;20036;-81
2021/08/22 08:58:40;;;;;;;10.70;5.28;;;;;;;;;;5087966;28;20055;-81
2021/08/22 09:01:06;;;;;;;6.25;5.28;;;;;;;;;;5082331;28;20352;-82
2021/08/22 09:03:32;;;;;;;6.35;4.72;;;;;;;;;;5084122;28;20028;-82
2021/08/22 09:06:04;;;;;;;7.50;4.50;;;;;;;;;;5097742;28;20036;-81
2021/08/22 09:08:58;;;;;;;6.80;3.92;;;;;;;;;;5096306;28;20040;-80
2021/08/22 09:12:01;;;;;;;6.90;4.30;;;;;;;;;;5096067;28;20486;-81
2021/08/22 09:14:30;;;;;;;7.88;4.57;;;;;;;;;;5098078;28;20031;-80
2021/08/22 09:17:33;;;;;;;7.68;4.72;;;;;;;;;;5116104;28;20487;-80
2021/08/22 09:20:37;;;;;;;7.10;4.15;;;;;;;;;;5098637;28;20024;-80
2021/08/22 09:23:40;;;;;;;7.25;4.90;;;;;;;;;;5116933;28;20088;-80
2021/08/22 09:26:30;;;;;;;8.38;4.82;;;;;;;;;;5073771;28;20028;-80
2021/08/22 09:29:33;;;;;;;7.30;4.88;;;;;;;;;;5078562;28;20024;-80
2021/08/22 09:32:37;;;;;;;6.82;4.15;;;;;;;;;;5079595;28;20041;-81
2021/08/22 09:35:14;;;;;;;7.70;5.00;;;;;;;;;;5080645;28;20133;-81
2021/08/22 09:38:17;;;;;;;7.05;4.38;;;;;;;;;;5074889;28;20043;-80
2021/08/22 09:41:09;;;;;;;5.13;4.25;;;;;;;;;;5062175;28;20451;-79
2021/08/22 09:44:12;;;;;;;7.88;4.75;;;;;;;;;;5062952;28;20036;-80
2021/08/22 09:47:15;;;;;;;5.28;3.83;;;;;;;;;;5064035;28;20032;-83
2021/08/22 09:50:21;;;;;;;6.80;4.25;;;;;;;;;;5063362;28;20024;-82
2021/08/22 09:53:12;;;;;;;7.10;4.40;;;;;;;;;;5081043;28;20036;-80
2021/08/22 09:56:17;;;;;;;6.32;4.20;;;;;;;;;;5061327;28;20048;-83
2021/08/22 09:58:54;;;;;;;6.35;4.43;;;;;;;;;;5070225;28;20469;-82
2021/08/22 10:01:52;;;;;;;6.10;3.70;;;;;;;;;;5103493;28;20135;-79
2021/08/22 10:04:53;;;;;;;5.03;3.35;;;;;;;;;;5082119;28;20047;-82
2021/08/22 10:07:34;;;;;;;5.47;3.78;;;;;;;;;;5086818;28;20546;-81
2021/08/22 10:10:08;;;;;;;7.80;3.42;;;;;;;;;;5102154;28;20059;-81
2021/08/22 10:12:34;;;;;;;4.45;3.20;;;;;;;;;;5086421;28;20036;-84
2021/08/22 10:14:59;;;;;;;4.82;3.83;;;;;;;;;;5102868;28;20036;-82
2021/08/22 10:17:28;;;;;;;5.07;3.25;;;;;;;;;;5102279;28;20028;-85
2021/08/22 10:19:54;;;;;;;4.15;3.22;;;;;;;;;;5103596;28;20062;-81
2021/08/22 10:22:34;;;;;;;7.75;3.33;;;;;;;;;;5107816;28;20038;-80
2021/08/22 10:25:03;;;;;;;7.72;4.25;;;;;;;;;;5098556;28;20050;-81
2021/08/22 10:27:36;;;;;;;5.82;3.40;;;;;;;;;;5068711;28;20035;-81
2021/08/22 10:30:02;;;;;;;5.85;3.88;;;;;;;;;;5068987;28;20060;-81
2021/08/22 10:32:29;;;;;;;9.00;4.35;;;;;;;;;;5067522;28;20379;-81
2021/08/22 10:35:07;;;;;;;7.57;4.05;;;;;;;;;;5085231;28;20056;-82
2021/08/22 10:37:33;;;;;;;6.22;4.05;;;;;;;;;;5079872;28;20509;-84
2021/08/22 10:40:21;;;;;;;5.18;3.67;;;;;;;;;;5078006;28;20032;-83
2021/08/22 10:42:48;;;;;;;4.65;3.40;;;;;;;;;;5079698;28;20039;-82
2021/08/22 10:45:46;;;;;;;5.65;4.13;;;;;;;;;;5086159;28;20094;-84
2021/08/22 10:48:34;;;;;;;4.22;3.70;;;;;;;;;;5086618;28;20055;-83
2021/08/22 10:50:59;;;;;;;6.68;3.80;;;;;;;;;;5105253;28;20036;-83
2021/08/22 10:53:26;;;;;;;3.92;3.53;;;;;;;;;;5094922;28;20043;-82
2021/08/22 10:55:52;;;;;;;5.28;4.03;;;;;;;;;;5073713;28;20063;-83
2021/08/22 10:58:17;;;;;;;5.68;4.25;;;;;;;;;;5091051;28;20032;-82
2021/08/22 11:00:43;;;;;;;4.18;3.67;;;;;;;;;;5089911;28;20398;-83
2021/08/22 11:03:21;;;;;;;4.85;3.80;;;;;;;;;;5072739;28;20096;-82
2021/08/22 11:05:47;;;;;;;8.05;4.05;;;;;;;;;;5088296;28;20037;-82
2021/08/22 11:08:21;;;;;;;4.28;3.63;;;;;;;;;;5087071;28;20032;-81
2021/08/22 11:11:07;;;;;;;4.72;3.60;;;;;;;;;;5070005;28;20024;-81
2021/08/22 11:13:41;;;;;;;4.60;3.60;;;;;;;;;;5072465;28;20043;-80
2021/08/22 11:16:08;;;;;;;5.40;4.03;;;;;;;;;;5083748;28;20402;-81
2021/08/22 11:18:35;;;;;;;9.55;4.35;;;;;;;;;;5066345;28;20039;-79
2021/08/22 11:21:02;;;;;;;5.13;3.70;;;;;;;;;;5068814;28;20040;-79
2021/08/22 11:23:27;;;;;;;8.52;4.20;;;;;;;;;;5102458;28;20063;-80
2021/08/22 11:26:01;;;;;;;6.25;3.97;;;;;;;;;;5085951;28;20036;-80
2021/08/22 11:28:26;;;;;;;4.65;3.72;;;;;;;;;;5069257;28;20032;-80
2021/08/22 11:30:53;;;;;;;8.52;4.03;;;;;;;;;;5086235;28;20037;-80
2021/08/22 11:33:20;;;;;;;5.15;3.97;;;;;;;;;;5115700;28;20016;-80
2021/08/22 11:35:47;;;;;;;4.35;3.40;;;;;;;;;;5126422;28;20054;-80
2021/08/22 11:38:14;;;;;;;4.45;3.50;;;;;;;;;;5083176;28;20551;-80
2021/08/22 11:40:44;;;;;;;6.45;3.97;;;;;;;;;;5083749;28;20063;-80
2021/08/22 11:43:11;;;;;;;4.05;3.53;;;;;;;;;;5082142;28;20092;-80
2021/08/22 11:45:41;;;;;;;5.88;3.83;;;;;;;;;;5082704;28;20036;-80
2021/08/22 11:48:16;;;;;;;14.75;10.00;;;;;;;;;;5080729;28;20032;-80
2021/08/22 11:50:42;;;;;;;7.80;5.90;;;;;;;;;;5082118;28;20063;-80
2021/08/22 11:53:08;;;;;;;6.47;3.60;;;;;;;;;;5072019;28;20028;-80
2021/08/22 11:55:36;;;;;;;4.72;3.58;;;;;;;;;;5104907;28;20059;-80
2021/08/22 11:58:10;;;;;;;3.83;3.40;;;;;;;;;;5124550;28;20032;-81
2021/08/22 12:00:38;;;;;;;4.72;3.55;;;;;;;;;;5101506;28;20089;-80
2021/08/22 12:03:03;;;;;;;4.47;3.45;;;;;;;;;;5100397;28;20495;-81
2021/08/22 12:05:31;;;;;;;4.78;3.35;;;;;;;;;;5100652;28;20071;-81
2021/08/22 12:08:08;;;;;;;8.02;3.20;;;;;;;;;;5088364;28;20032;-81
2021/08/22 12:10:37;;;;;;;3.38;2.88;;;;;;;;;;5101125;28;20043;-80
2021/08/22 12:13:04;;;;;;;5.47;2.38;;;;;;;;;;5102000;28;20433;-80
2021/08/22 12:15:35;;;;;;;3.20;2.50;;;;;;;;;;5093221;28;20479;-79
2021/08/22 12:18:18;;;;;;;2.80;2.50;;;;;;;;;;5062919;28;20037;-81
2021/08/22 12:20:52;;;;;;;5.75;2.97;;;;;;;;;;5086823;28;20393;-80
2021/08/22 12:23:27;;;;;;;3.83;3.00;;;;;;;;;;5082503;28;20038;-81
2021/08/22 12:25:56;;;;;;;5.57;2.80;;;;;;;;;;5074600;28;20039;-81
2021/08/22 12:28:24;;;;;;;4.28;3.00;;;;;;;;;;5080438;28;20028;-81
2021/08/22 12:31:05;;;;;;;6.10;2.90;;;;;;;;;;5083317;28;20040;-80
2021/08/22 12:33:34;;;;;;;4.75;3.10;;;;;;;;;;5082735;28;20421;-80
2021/08/22 12:36:07;;;;;;;4.13;2.63;;;;;;;;;;5082410;28;20048;-81
2021/08/22 12:38:45;;;;;;;11.05;7.45;;;;;;;;;;5083229;28;20040;-80
2021/08/22 12:41:32;;;;;;;6.13;3.70;;;;;;;;;;5100254;28;20036;-81
2021/08/22 12:44:00;;;;;;;5.43;3.13;;;;;;;;;;5082097;28;20516;-79
2021/08/22 12:46:26;;;;;;;3.42;3.05;;;;;;;;;;5079097;28;20036;-79
2021/08/22 12:48:53;;;;;;;3.53;2.80;;;;;;;;;;5109215;28;20055;-79
2021/08/22 12:51:20;;;;;;;3.50;2.90;;;;;;;;;;5103147;28;20028;-79
2021/08/22 12:53:46;;;;;;;6.30;3.15;;;;;;;;;;5105027;28;20032;-79
2021/08/22 12:56:12;;;;;;;3.80;2.90;;;;;;;;;;5099116;28;20085;-79
2021/08/22 12:58:37;;;;;;;4.72;3.05;;;;;;;;;;5099524;28;20040;-79
2021/08/22 13:01:03;;;;;;;5.25;3.25;;;;;;;;;;5100337;28;20055;-79
2021/08/22 13:03:28;;;;;;;4.80;3.50;;;;;;;;;;5101955;28;20066;-79
2021/08/22 13:05:54;;;;;;;6.63;4.07;;;;;;;;;;5105188;28;20047;-78
2021/08/22 13:08:19;;;;;;;8.35;3.40;;;;;;;;;;5071481;28;20044;-77
2021/08/22 13:10:45;;;;;;;7.53;3.53;;;;;;;;;;5080289;28;20063;-77
2021/08/22 13:13:10;;;;;;;7.13;3.60;;;;;;;;;;5061625;28;20058;-77
2021/08/22 13:15:35;;;;;;;9.57;3.60;;;;;;;;;;5078776;28;20040;-77
2021/08/22 13:18:01;;;;;;;6.88;3.90;;;;;;;;;;5079097;28;20028;-77
2021/08/22 13:20:28;;;;;;;5.82;3.80;;;;;;;;;;5079590;28;20040;-77
2021/08/22 13:22:53;;;;;;;5.00;3.88;;;;;;;;;;5061722;28;20127;-77
2021/08/22 13:25:18;;;;;;;6.47;4.05;;;;;;;;;;5093850;28;20092;-77
2021/08/22 13:27:44;;;;;;;8.70;4.40;;;;;;;;;;5101348;28;20067;-77
2021/08/22 13:30:10;;;;;;;5.70;3.83;;;;;;;;;;5100499;28;20068;-77
2021/08/22 13:32:36;;;;;;;4.80;3.85;;;;;;;;;;5098838;28;20027;-77
2021/08/22 13:35:01;;;;;;;5.75;4.25;;;;;;;;;;5098114;28;20059;-77
2021/08/22 13:37:26;;;;;;;6.32;4.05;;;;;;;;;;5097479;28;20043;-77
2021/08/22 13:39:52;;;;;;;8.43;3.95;;;;;;;;;;5098355;28;20082;-77
2021/08/22 13:42:17;;;;;;;6.57;4.35;;;;;;;;;;5081953;28;20047;-77
2021/08/22 13:44:43;;;;;;;6.18;4.35;;;;;;;;;;5098484;28;20040;-77
2021/08/22 13:47:08;;;;;;;7.25;4.40;;;;;;;;;;5098480;28;20453;-77
2021/08/22 13:49:34;;;;;;;6.20;4.47;;;;;;;;;;5099555;28;20040;-76
2021/08/22 13:51:59;;;;;;;7.25;4.28;;;;;;;;;;5100168;28;20028;-79
2021/08/22 13:54:25;;;;;;;21.83;16.52;;;;;;;;;;5098404;28;20103;-76
2021/08/22 13:56:51;;;;;;;17.23;11.63;;;;;;;;;;5099474;28;20044;-78
2021/08/22 13:59:16;;;;;;;9.43;5.20;;;;;;;;;;5099771;28;20027;-77
2021/08/22 14:01:41;;;;;;;11.15;4.70;;;;;;;;;;5098973;28;20050;-76
2021/08/22 14:04:07;;;;;;;8.80;4.53;;;;;;;;;;5098405;28;20118;-76
2021/08/22 14:06:32;;;;;;;6.28;4.45;;;;;;;;;;5098149;28;20428;-76
2021/08/22 14:08:57;;;;;;;6.93;3.95;;;;;;;;;;5098046;28;20382;-76
2021/08/22 14:11:23;;;;;;;6.82;4.72;;;;;;;;;;5081274;28;20016;-76
2021/08/22 14:13:49;;;;;;;7.90;4.20;;;;;;;;;;5097290;27;20119;-76
2021/08/22 14:16:15;;;;;;;5.95;4.13;;;;;;;;;;5094683;28;20028;-76
2021/08/22 14:18:41;;;;;;;7.78;4.22;;;;;;;;;;5094922;28;20039;-76
2021/08/22 14:21:08;;;;;;;6.70;4.25;;;;;;;;;;5093168;28;20047;-76
2021/08/22 14:23:33;;;;;;;5.90;4.00;;;;;;;;;;5072253;28;20030;-76
2021/08/22 14:25:59;;;;;;;8.10;4.22;;;;;;;;;;5083093;28;20351;-76
2021/08/22 14:28:24;;;;;;;6.88;4.05;;;;;;;;;;5082646;28;20044;-76
2021/08/22 14:30:50;;;;;;;5.63;4.38;;;;;;;;;;5084987;28;20032;-76
2021/08/22 14:33:15;;;;;;;5.53;4.72;;;;;;;;;;5081156;28;20024;-76
2021/08/22 14:35:41;;;;;;;7.65;4.88;;;;;;;;;;5083616;28;20044;-76
2021/08/22 14:38:06;;;;;;;6.45;4.20;;;;;;;;;;5071461;28;20124;-76
2021/08/22 14:40:32;;;;;;;6.75;4.28;;;;;;;;;;5085994;28;20043;-77
2021/08/22 14:43:00;;;;;;;6.30;4.05;;;;;;;;;;5087088;28;20086;-77
2021/08/22 14:45:25;;;;;;;7.05;3.70;;;;;;;;;;5079485;28;20028;-77
2021/08/22 14:47:53;;;;;;;7.28;4.97;;;;;;;;;;5080879;28;20469;-77
2021/08/22 14:50:23;;;;;;;9.23;4.00;;;;;;;;;;5084123;28;20047;-77
2021/08/22 14:52:51;;;;;;;9.27;4.20;;;;;;;;;;5092336;28;20032;-77